sensor_id;sensor_type;location;lat;lon;timestamp;temperature;humidity
62259;DHT22;48241;48.824;10.102;2023-02-19T00:01:39;10.90;99.90
62259;DHT22;48241;48.824;10.102;2023-02-19T00:04:16;11.00;99.90
62259;DHT22;48241;48.824;10.102;2023-02-19T00:06:43;11.00;99.90
62259;DHT22;48241;48.824;10.102;2023-02-19T00:09:14;10.90;99.90
62259;DHT22;48241;48.824;10.102;2023-02-19T00:11:40;10.90;99.90
62259;DHT22;48241;48.824;10.102;2023-02-19T00:14:07;10.90;99.90
62259;DHT22;48241;48.824;10.102;2023-02-19T00:16:37;11.00;99.90
62259;DHT22;48241;48.824;10.102;2023-02-19T00:19:06;11.00;99.90
62259;DHT22;48241;48.824;10.102;2023-02-19T00:21:33;11.00;99.90
62259;DHT22;48241;48.824;10.102;2023-02-19T00:24:01;11.00;99.90
62259;DHT22;48241;48.824;10.102;2023-02-19T00:26:28;10.80;99.90
62259;DHT22;48241;48.824;10.102;2023-02-19T00:28:54;10.80;99.90
62259;DHT22;48241;48.824;10.102;2023-02-19T00:31:23;11.00;99.90
62259;DHT22;48241;48.824;10.102;2023-02-19T00:33:51;10.80;99.90
62259;DHT22;48241;48.824;10.102;2023-02-19T00:36:17;10.90;99.90
62259;DHT22;48241;48.824;10.102;2023-02-19T00:38:43;10.70;99.90
62259;DHT22;48241;48.824;10.102;2023-02-19T00:41:10;10.60;99.90
62259;DHT22;48241;48.824;10.102;2023-02-19T00:44:05;10.50;99.90
62259;DHT22;48241;48.824;10.102;2023-02-19T00:46:38;10.70;99.90
62259;DHT22;48241;48.824;10.102;2023-02-19T00:49:06;10.80;99.90
62259;DHT22;48241;48.824;10.102;2023-02-19T00:51:35;10.60;99.90
62259;DHT22;48241;48.824;10.102;2023-02-19T00:54:02;10.60;99.90
62259;DHT22;48241;48.824;10.102;2023-02-19T00:56:27;10.80;99.90
62259;DHT22;48241;48.824;10.102;2023-02-19T00:58:53;10.90;99.90
62259;DHT22;48241;48.824;10.102;2023-02-19T01:01:19;11.00;99.90
62259;DHT22;48241;48.824;10.102;2023-02-19T01:03:45;11.10;99.90
62259;DHT22;48241;48.824;10.102;2023-02-19T01:06:13;11.00;99.90
62259;DHT22;48241;48.824;10.102;2023-02-19T01:08:49;10.90;99.90
62259;DHT22;48241;48.824;10.102;2023-02-19T01:11:16;11.00;99.90
62259;DHT22;48241;48.824;10.102;2023-02-19T01:13:42;10.90;99.90
62259;DHT22;48241;48.824;10.102;2023-02-19T01:16:20;11.10;99.90
62259;DHT22;48241;48.824;10.102;2023-02-19T01:18:46;11.10;99.90
62259;DHT22;48241;48.824;10.102;2023-02-19T01:21:15;11.00;99.90
62259;DHT22;48241;48.824;10.102;2023-02-19T01:23:41;10.70;99.90
62259;DHT22;48241;48.824;10.102;2023-02-19T01:26:09;10.80;99.90
62259;DHT22;48241;48.824;10.102;2023-02-19T01:28:36;10.80;99.90
62259;DHT22;48241;48.824;10.102;2023-02-19T01:31:06;10.70;99.90
62259;DHT22;48241;48.824;10.102;2023-02-19T01:33:33;10.90;99.90
62259;DHT22;48241;48.824;10.102;2023-02-19T01:36:01;11.00;99.90
62259;DHT22;48241;48.824;10.102;2023-02-19T01:38:27;10.80;99.90
62259;DHT22;48241;48.824;10.102;2023-02-19T01:41:01;10.80;99.90
62259;DHT22;48241;48.824;10.102;2023-02-19T01:44:02;10.90;99.90
62259;DHT22;48241;48.824;10.102;2023-02-19T01:46:33;10.70;99.90
62259;DHT22;48241;48.824;10.102;2023-02-19T01:49:34;10.70;99.90
62259;DHT22;48241;48.824;10.102;2023-02-19T01:52:28;10.50;99.90
62259;DHT22;48241;48.824;10.102;2023-02-19T01:55:04;10.10;99.90
62259;DHT22;48241;48.824;10.102;2023-02-19T01:57:44;10.20;99.90
62259;DHT22;48241;48.824;10.102;2023-02-19T02:00:23;10.30;99.90
62259;DHT22;48241;48.824;10.102;2023-02-19T02:02:53;10.40;99.90
62259;DHT22;48241;48.824;10.102;2023-02-19T02:05:50;10.30;99.90
62259;DHT22;48241;48.824;10.102;2023-02-19T02:08:30;10.30;99.90
62259;DHT22;48241;48.824;10.102;2023-02-19T02:11:18;10.10;99.90
62259;DHT22;48241;48.824;10.102;2023-02-19T02:13:50;10.40;99.90
62259;DHT22;48241;48.824;10.102;2023-02-19T02:34:58;10.40;99.90
62259;DHT22;48241;48.824;10.102;2023-02-19T02:37:26;10.40;99.90
62259;DHT22;48241;48.824;10.102;2023-02-19T02:40:07;10.30;99.90
62259;DHT22;48241;48.824;10.102;2023-02-19T02:42:58;10.30;99.90
62259;DHT22;48241;48.824;10.102;2023-02-19T02:45:35;10.10;99.90
62259;DHT22;48241;48.824;10.102;2023-02-19T02:48:29;10.10;99.90
62259;DHT22;48241;48.824;10.102;2023-02-19T02:51:32;10.10;99.90
62259;DHT22;48241;48.824;10.102;2023-02-19T02:54:04;10.20;99.90
62259;DHT22;48241;48.824;10.102;2023-02-19T02:56:50;10.20;99.90
62259;DHT22;48241;48.824;10.102;2023-02-19T02:59:22;10.00;99.90
62259;DHT22;48241;48.824;10.102;2023-02-19T03:02:03;10.00;99.90
62259;DHT22;48241;48.824;10.102;2023-02-19T03:07:57;10.00;99.90
62259;DHT22;48241;48.824;10.102;2023-02-19T03:13:05;9.90;99.90
62259;DHT22;48241;48.824;10.102;2023-02-19T03:15:57;10.00;99.90
62259;DHT22;48241;48.824;10.102;2023-02-19T03:18:48;10.00;99.90
62259;DHT22;48241;48.824;10.102;2023-02-19T03:21:35;10.00;99.90
62259;DHT22;48241;48.824;10.102;2023-02-19T03:24:04;10.10;99.90
62259;DHT22;48241;48.824;10.102;2023-02-19T03:26:50;10.10;99.90
62259;DHT22;48241;48.824;10.102;2023-02-19T03:29:20;10.20;99.90
62259;DHT22;48241;48.824;10.102;2023-02-19T03:32:07;10.30;99.90
62259;DHT22;48241;48.824;10.102;2023-02-19T03:34:46;10.30;99.90
62259;DHT22;48241;48.824;10.102;2023-02-19T03:37:16;10.20;99.90
62259;DHT22;48241;48.824;10.102;2023-02-19T03:39:43;10.00;99.90
62259;DHT22;48241;48.824;10.102;2023-02-19T03:42:13;10.10;99.90
62259;DHT22;48241;48.824;10.102;2023-02-19T03:47:24;10.00;99.90
62259;DHT22;48241;48.824;10.102;2023-02-19T03:52:38;9.90;99.90
62259;DHT22;48241;48.824;10.102;2023-02-19T03:58:20;9.90;99.90
62259;DHT22;48241;48.824;10.102;2023-02-19T04:01:02;9.90;99.90
62259;DHT22;48241;48.824;10.102;2023-02-19T04:06:26;10.10;99.90
62259;DHT22;48241;48.824;10.102;2023-02-19T04:08:55;10.10;99.90
62259;DHT22;48241;48.824;10.102;2023-02-19T04:11:21;9.90;99.90
62259;DHT22;48241;48.824;10.102;2023-02-19T04:13:58;10.00;99.90
62259;DHT22;48241;48.824;10.102;2023-02-19T04:16:27;10.00;99.90
62259;DHT22;48241;48.824;10.102;2023-02-19T04:18:57;9.90;99.90
62259;DHT22;48241;48.824;10.102;2023-02-19T04:21:25;9.70;99.90
62259;DHT22;48241;48.824;10.102;2023-02-19T04:23:53;9.80;99.90
62259;DHT22;48241;48.824;10.102;2023-02-19T04:26:21;9.80;99.90
62259;DHT22;48241;48.824;10.102;2023-02-19T04:28:47;9.90;99.90
62259;DHT22;48241;48.824;10.102;2023-02-19T04:31:13;9.80;99.90
62259;DHT22;48241;48.824;10.102;2023-02-19T04:33:38;9.90;99.90
62259;DHT22;48241;48.824;10.102;2023-02-19T04:36:04;9.90;99.90
62259;DHT22;48241;48.824;10.102;2023-02-19T04:38:31;9.90;99.90
62259;DHT22;48241;48.824;10.102;2023-02-19T04:40:56;9.90;99.90
62259;DHT22;48241;48.824;10.102;2023-02-19T04:43:22;9.80;99.90
62259;DHT22;48241;48.824;10.102;2023-02-19T04:45:48;9.80;99.90
62259;DHT22;48241;48.824;10.102;2023-02-19T04:48:13;9.70;99.90
62259;DHT22;48241;48.824;10.102;2023-02-19T04:50:39;9.70;99.90
62259;DHT22;48241;48.824;10.102;2023-02-19T04:53:05;9.60;99.90
62259;DHT22;48241;48.824;10.102;2023-02-19T04:55:31;9.60;99.90
62259;DHT22;48241;48.824;10.102;2023-02-19T04:57:56;9.60;99.90
62259;DHT22;48241;48.824;10.102;2023-02-19T05:00:22;9.70;99.90
62259;DHT22;48241;48.824;10.102;2023-02-19T05:02:47;9.70;99.90
62259;DHT22;48241;48.824;10.102;2023-02-19T05:05:13;9.60;99.90
62259;DHT22;48241;48.824;10.102;2023-02-19T05:07:39;9.40;99.90
62259;DHT22;48241;48.824;10.102;2023-02-19T05:10:04;9.20;99.90
62259;DHT22;48241;48.824;10.102;2023-02-19T05:12:30;9.20;99.90
62259;DHT22;48241;48.824;10.102;2023-02-19T05:14:56;9.20;99.90
62259;DHT22;48241;48.824;10.102;2023-02-19T05:17:21;9.30;99.90
62259;DHT22;48241;48.824;10.102;2023-02-19T05:19:47;9.50;99.90
62259;DHT22;48241;48.824;10.102;2023-02-19T05:22:13;9.20;99.90
62259;DHT22;48241;48.824;10.102;2023-02-19T05:24:38;9.10;99.90
62259;DHT22;48241;48.824;10.102;2023-02-19T05:27:04;9.30;99.90
62259;DHT22;48241;48.824;10.102;2023-02-19T05:29:30;9.30;99.90
62259;DHT22;48241;48.824;10.102;2023-02-19T05:31:55;9.30;99.90
62259;DHT22;48241;48.824;10.102;2023-02-19T05:34:21;9.30;99.90
62259;DHT22;48241;48.824;10.102;2023-02-19T05:36:47;9.20;99.90
62259;DHT22;48241;48.824;10.102;2023-02-19T05:39:12;9.20;99.90
62259;DHT22;48241;48.824;10.102;2023-02-19T05:41:38;9.30;99.90
62259;DHT22;48241;48.824;10.102;2023-02-19T05:44:04;9.30;99.90
62259;DHT22;48241;48.824;10.102;2023-02-19T05:46:29;9.30;99.90
62259;DHT22;48241;48.824;10.102;2023-02-19T05:48:55;9.10;99.90
62259;DHT22;48241;48.824;10.102;2023-02-19T05:51:23;8.90;99.90
62259;DHT22;48241;48.824;10.102;2023-02-19T05:53:51;8.80;99.90
62259;DHT22;48241;48.824;10.102;2023-02-19T05:56:29;8.80;99.90
62259;DHT22;48241;48.824;10.102;2023-02-19T05:58:56;8.70;99.90
62259;DHT22;48241;48.824;10.102;2023-02-19T06:01:24;8.80;99.90
62259;DHT22;48241;48.824;10.102;2023-02-19T06:03:50;8.90;99.90
62259;DHT22;48241;48.824;10.102;2023-02-19T06:06:17;8.80;99.90
62259;DHT22;48241;48.824;10.102;2023-02-19T06:08:43;8.80;99.90
62259;DHT22;48241;48.824;10.102;2023-02-19T06:11:09;8.70;99.90
62259;DHT22;48241;48.824;10.102;2023-02-19T06:13:34;8.70;99.90
62259;DHT22;48241;48.824;10.102;2023-02-19T06:16:03;8.70;99.90
62259;DHT22;48241;48.824;10.102;2023-02-19T06:18:29;8.60;99.90
62259;DHT22;48241;48.824;10.102;2023-02-19T06:21:03;8.60;99.90
62259;DHT22;48241;48.824;10.102;2023-02-19T06:23:29;8.70;99.90
62259;DHT22;48241;48.824;10.102;2023-02-19T06:28:31;8.60;99.90
62259;DHT22;48241;48.824;10.102;2023-02-19T06:30:57;8.60;99.90
62259;DHT22;48241;48.824;10.102;2023-02-19T06:33:23;8.70;99.90
62259;DHT22;48241;48.824;10.102;2023-02-19T06:35:48;8.80;99.90
62259;DHT22;48241;48.824;10.102;2023-02-19T06:38:14;8.70;99.90
62259;DHT22;48241;48.824;10.102;2023-02-19T06:40:40;8.60;99.90
62259;DHT22;48241;48.824;10.102;2023-02-19T06:43:05;8.60;99.90
62259;DHT22;48241;48.824;10.102;2023-02-19T06:45:31;8.50;99.90
62259;DHT22;48241;48.824;10.102;2023-02-19T06:47:56;8.60;99.90
62259;DHT22;48241;48.824;10.102;2023-02-19T06:50:22;8.70;99.90
62259;DHT22;48241;48.824;10.102;2023-02-19T06:52:47;8.70;99.90
62259;DHT22;48241;48.824;10.102;2023-02-19T06:55:13;8.80;99.90
62259;DHT22;48241;48.824;10.102;2023-02-19T06:57:38;8.80;99.90
62259;DHT22;48241;48.824;10.102;2023-02-19T07:00:04;9.00;99.90
62259;DHT22;48241;48.824;10.102;2023-02-19T07:02:30;8.90;99.90
62259;DHT22;48241;48.824;10.102;2023-02-19T07:04:58;8.90;99.90
62259;DHT22;48241;48.824;10.102;2023-02-19T07:07:26;8.90;99.90
62259;DHT22;48241;48.824;10.102;2023-02-19T07:09:54;9.00;99.90
62259;DHT22;48241;48.824;10.102;2023-02-19T07:12:23;9.00;99.90
62259;DHT22;48241;48.824;10.102;2023-02-19T07:14:48;9.10;99.90
62259;DHT22;48241;48.824;10.102;2023-02-19T07:17:14;9.10;99.90
62259;DHT22;48241;48.824;10.102;2023-02-19T07:19:42;9.10;99.90
62259;DHT22;48241;48.824;10.102;2023-02-19T07:22:10;9.00;99.90
62259;DHT22;48241;48.824;10.102;2023-02-19T07:24:35;9.20;99.90
62259;DHT22;48241;48.824;10.102;2023-02-19T07:27:01;9.00;99.90
62259;DHT22;48241;48.824;10.102;2023-02-19T07:29:26;9.20;99.90
62259;DHT22;48241;48.824;10.102;2023-02-19T07:31:52;9.20;99.90
62259;DHT22;48241;48.824;10.102;2023-02-19T07:34:17;9.30;99.90
62259;DHT22;48241;48.824;10.102;2023-02-19T07:36:43;9.40;99.90
62259;DHT22;48241;48.824;10.102;2023-02-19T07:39:13;9.40;99.90
62259;DHT22;48241;48.824;10.102;2023-02-19T07:41:41;9.50;99.90
62259;DHT22;48241;48.824;10.102;2023-02-19T07:44:06;9.50;99.90
62259;DHT22;48241;48.824;10.102;2023-02-19T07:46:32;9.60;99.90
62259;DHT22;48241;48.824;10.102;2023-02-19T07:48:58;9.50;99.90
62259;DHT22;48241;48.824;10.102;2023-02-19T07:51:24;9.50;99.90
62259;DHT22;48241;48.824;10.102;2023-02-19T07:53:49;9.20;99.90
62259;DHT22;48241;48.824;10.102;2023-02-19T07:56:16;9.30;99.90
62259;DHT22;48241;48.824;10.102;2023-02-19T07:58:42;9.50;99.90
62259;DHT22;48241;48.824;10.102;2023-02-19T08:01:09;9.60;99.90
62259;DHT22;48241;48.824;10.102;2023-02-19T08:03:36;9.40;99.90
62259;DHT22;48241;48.824;10.102;2023-02-19T08:06:02;9.60;99.90
62259;DHT22;48241;48.824;10.102;2023-02-19T08:08:27;9.70;99.90
62259;DHT22;48241;48.824;10.102;2023-02-19T08:10:53;9.80;99.90
62259;DHT22;48241;48.824;10.102;2023-02-19T08:13:37;9.80;99.90
62259;DHT22;48241;48.824;10.102;2023-02-19T08:18:31;9.80;99.90
62259;DHT22;48241;48.824;10.102;2023-02-19T08:20:58;9.70;99.90
62259;DHT22;48241;48.824;10.102;2023-02-19T08:23:27;9.90;99.90
62259;DHT22;48241;48.824;10.102;2023-02-19T08:25:56;9.90;99.90
62259;DHT22;48241;48.824;10.102;2023-02-19T08:28:22;9.80;99.90
62259;DHT22;48241;48.824;10.102;2023-02-19T08:30:48;9.70;99.90
62259;DHT22;48241;48.824;10.102;2023-02-19T08:33:19;9.90;99.90
62259;DHT22;48241;48.824;10.102;2023-02-19T08:35:45;10.00;99.90
62259;DHT22;48241;48.824;10.102;2023-02-19T08:38:12;10.10;99.90
62259;DHT22;48241;48.824;10.102;2023-02-19T08:40:38;10.20;99.70
62259;DHT22;48241;48.824;10.102;2023-02-19T08:43:06;9.80;99.90
62259;DHT22;48241;48.824;10.102;2023-02-19T08:45:32;10.00;99.90
62259;DHT22;48241;48.824;10.102;2023-02-19T08:47:59;10.00;99.90
62259;DHT22;48241;48.824;10.102;2023-02-19T08:50:25;10.20;99.90
62259;DHT22;48241;48.824;10.102;2023-02-19T08:52:51;10.40;99.90
62259;DHT22;48241;48.824;10.102;2023-02-19T08:55:17;10.30;98.80
62259;DHT22;48241;48.824;10.102;2023-02-19T08:57:43;10.40;98.60
62259;DHT22;48241;48.824;10.102;2023-02-19T09:00:09;10.40;98.90
62259;DHT22;48241;48.824;10.102;2023-02-19T09:02:35;10.30;98.70
62259;DHT22;48241;48.824;10.102;2023-02-19T09:05:00;10.10;99.00
62259;DHT22;48241;48.824;10.102;2023-02-19T09:07:26;10.20;99.30
62259;DHT22;48241;48.824;10.102;2023-02-19T09:09:52;10.20;99.70
62259;DHT22;48241;48.824;10.102;2023-02-19T09:12:18;10.20;98.80
62259;DHT22;48241;48.824;10.102;2023-02-19T09:14:44;10.20;99.10
62259;DHT22;48241;48.824;10.102;2023-02-19T09:17:10;10.30;99.00
62259;DHT22;48241;48.824;10.102;2023-02-19T09:19:36;10.50;98.60
62259;DHT22;48241;48.824;10.102;2023-02-19T09:22:02;10.70;98.80
62259;DHT22;48241;48.824;10.102;2023-02-19T09:24:28;10.70;97.50
62259;DHT22;48241;48.824;10.102;2023-02-19T09:26:54;10.90;97.60
62259;DHT22;48241;48.824;10.102;2023-02-19T09:29:21;11.00;97.70
62259;DHT22;48241;48.824;10.102;2023-02-19T09:31:48;11.20;96.20
62259;DHT22;48241;48.824;10.102;2023-02-19T09:34:13;11.10;96.30
62259;DHT22;48241;48.824;10.102;2023-02-19T09:36:39;10.70;96.30
62259;DHT22;48241;48.824;10.102;2023-02-19T09:39:06;10.90;96.70
62259;DHT22;48241;48.824;10.102;2023-02-19T09:41:35;10.90;96.40
62259;DHT22;48241;48.824;10.102;2023-02-19T09:44:03;10.80;96.50
62259;DHT22;48241;48.824;10.102;2023-02-19T09:49:12;11.20;95.50
62259;DHT22;48241;48.824;10.102;2023-02-19T09:51:40;11.40;95.50
62259;DHT22;48241;48.824;10.102;2023-02-19T09:54:24;11.10;95.60
62259;DHT22;48241;48.824;10.102;2023-02-19T09:56:52;11.20;95.70
62259;DHT22;48241;48.824;10.102;2023-02-19T09:59:39;11.30;95.40
62259;DHT22;48241;48.824;10.102;2023-02-19T10:02:23;11.20;94.90
62259;DHT22;48241;48.824;10.102;2023-02-19T10:04:50;11.20;95.30
62259;DHT22;48241;48.824;10.102;2023-02-19T10:07:22;11.20;95.00
62259;DHT22;48241;48.824;10.102;2023-02-19T10:10:00;11.10;94.90
62259;DHT22;48241;48.824;10.102;2023-02-19T10:12:29;11.10;95.80
62259;DHT22;48241;48.824;10.102;2023-02-19T10:15:03;11.20;95.30
62259;DHT22;48241;48.824;10.102;2023-02-19T10:17:31;11.00;95.50
62259;DHT22;48241;48.824;10.102;2023-02-19T10:19:59;11.20;95.00
62259;DHT22;48241;48.824;10.102;2023-02-19T10:22:28;11.50;95.00
62259;DHT22;48241;48.824;10.102;2023-02-19T10:24:55;11.50;95.00
62259;DHT22;48241;48.824;10.102;2023-02-19T10:27:21;11.70;95.40
62259;DHT22;48241;48.824;10.102;2023-02-19T10:29:48;11.90;94.90
62259;DHT22;48241;48.824;10.102;2023-02-19T10:32:22;11.80;95.30
62259;DHT22;48241;48.824;10.102;2023-02-19T10:37:33;11.80;94.70
62259;DHT22;48241;48.824;10.102;2023-02-19T10:39:59;11.60;94.70
62259;DHT22;48241;48.824;10.102;2023-02-19T10:42:25;11.50;94.50
62259;DHT22;48241;48.824;10.102;2023-02-19T10:44:57;11.60;93.70
62259;DHT22;48241;48.824;10.102;2023-02-19T10:47:27;11.80;93.70
62259;DHT22;48241;48.824;10.102;2023-02-19T10:49:56;12.00;92.80
62259;DHT22;48241;48.824;10.102;2023-02-19T10:52:31;12.10;92.30
62259;DHT22;48241;48.824;10.102;2023-02-19T10:57:43;12.60;91.40
62259;DHT22;48241;48.824;10.102;2023-02-19T11:02:42;12.50;90.50
62259;DHT22;48241;48.824;10.102;2023-02-19T11:07:35;12.30;90.50
62259;DHT22;48241;48.824;10.102;2023-02-19T11:10:02;12.10;91.00
62259;DHT22;48241;48.824;10.102;2023-02-19T11:12:30;12.40;91.10
62259;DHT22;48241;48.824;10.102;2023-02-19T11:15:12;12.60;90.00
62259;DHT22;48241;48.824;10.102;2023-02-19T11:17:43;12.70;90.10
62259;DHT22;48241;48.824;10.102;2023-02-19T11:20:14;12.90;90.30
62259;DHT22;48241;48.824;10.102;2023-02-19T11:22:42;12.90;86.00
62259;DHT22;48241;48.824;10.102;2023-02-19T11:30:33;12.70;87.00
62259;DHT22;48241;48.824;10.102;2023-02-19T11:36:20;12.70;86.60
62259;DHT22;48241;48.824;10.102;2023-02-19T11:38:44;12.50;87.30
62259;DHT22;48241;48.824;10.102;2023-02-19T11:56:50;12.50;86.80
62259;DHT22;48241;48.824;10.102;2023-02-19T11:59:29;12.50;85.40
62259;DHT22;48241;48.824;10.102;2023-02-19T12:02:18;12.40;85.70
62259;DHT22;48241;48.824;10.102;2023-02-19T12:13:51;12.30;88.70
62259;DHT22;48241;48.824;10.102;2023-02-19T12:16:30;12.40;87.70
62259;DHT22;48241;48.824;10.102;2023-02-19T12:19:08;12.60;88.70
62259;DHT22;48241;48.824;10.102;2023-02-19T12:27:18;13.20;85.90
62259;DHT22;48241;48.824;10.102;2023-02-19T12:38:26;13.90;85.10
62259;DHT22;48241;48.824;10.102;2023-02-19T12:41:08;13.90;82.70
62259;DHT22;48241;48.824;10.102;2023-02-19T12:43:51;13.30;82.80
62259;DHT22;48241;48.824;10.102;2023-02-19T12:46:27;12.90;84.10
62259;DHT22;48241;48.824;10.102;2023-02-19T12:48:59;12.80;83.90
62259;DHT22;48241;48.824;10.102;2023-02-19T12:55:12;12.40;85.10
62259;DHT22;48241;48.824;10.102;2023-02-19T12:57:05;12.60;85.80
62259;DHT22;48241;48.824;10.102;2023-02-19T12:59:52;12.90;84.80
62259;DHT22;48241;48.824;10.102;2023-02-19T13:02:33;13.20;82.40
62259;DHT22;48241;48.824;10.102;2023-02-19T13:13:04;12.60;85.40
62259;DHT22;48241;48.824;10.102;2023-02-19T13:15:38;12.70;86.20
62259;DHT22;48241;48.824;10.102;2023-02-19T13:18:18;13.00;85.50
62259;DHT22;48241;48.824;10.102;2023-02-19T13:20:45;12.90;84.00
62259;DHT22;48241;48.824;10.102;2023-02-19T13:26:18;13.00;83.20
62259;DHT22;48241;48.824;10.102;2023-02-19T13:29:08;13.10;81.50
62259;DHT22;48241;48.824;10.102;2023-02-19T13:31:55;12.90;81.80
62259;DHT22;48241;48.824;10.102;2023-02-19T13:36:53;12.30;82.00
62259;DHT22;48241;48.824;10.102;2023-02-19T13:39:20;12.10;83.90
62259;DHT22;48241;48.824;10.102;2023-02-19T13:41:53;12.10;85.00
62259;DHT22;48241;48.824;10.102;2023-02-19T13:44:22;12.20;84.10
62259;DHT22;48241;48.824;10.102;2023-02-19T13:46:49;12.20;83.70
62259;DHT22;48241;48.824;10.102;2023-02-19T13:52:00;12.60;82.70
62259;DHT22;48241;48.824;10.102;2023-02-19T13:54:33;12.80;82.60
62259;DHT22;48241;48.824;10.102;2023-02-19T13:59:53;13.30;79.60
62259;DHT22;48241;48.824;10.102;2023-02-19T14:05:03;13.30;79.50
62259;DHT22;48241;48.824;10.102;2023-02-19T14:10:11;13.00;81.00
62259;DHT22;48241;48.824;10.102;2023-02-19T14:12:37;12.80;83.60
62259;DHT22;48241;48.824;10.102;2023-02-19T14:18:43;11.90;85.80
62259;DHT22;48241;48.824;10.102;2023-02-19T14:21:22;11.60;87.80
62259;DHT22;48241;48.824;10.102;2023-02-19T14:23:52;11.20;89.70
62259;DHT22;48241;48.824;10.102;2023-02-19T14:26:20;11.40;90.10
62259;DHT22;48241;48.824;10.102;2023-02-19T14:28:47;11.50;90.70
62259;DHT22;48241;48.824;10.102;2023-02-19T14:31:58;11.60;88.90
62259;DHT22;48241;48.824;10.102;2023-02-19T14:34:22;11.70;88.30
62259;DHT22;48241;48.824;10.102;2023-02-19T14:36:57;12.00;88.40
62259;DHT22;48241;48.824;10.102;2023-02-19T14:39:34;12.00;87.60
62259;DHT22;48241;48.824;10.102;2023-02-19T14:42:07;11.90;86.50
62259;DHT22;48241;48.824;10.102;2023-02-19T14:44:54;11.70;86.50
62259;DHT22;48241;48.824;10.102;2023-02-19T14:47:23;11.50;88.20
62259;DHT22;48241;48.824;10.102;2023-02-19T14:50:02;11.50;89.50
62259;DHT22;48241;48.824;10.102;2023-02-19T14:52:35;11.60;90.00
62259;DHT22;48241;48.824;10.102;2023-02-19T14:55:53;11.80;89.80
62259;DHT22;48241;48.824;10.102;2023-02-19T14:57:56;11.70;90.20
62259;DHT22;48241;48.824;10.102;2023-02-19T15:00:28;11.50;90.30
62259;DHT22;48241;48.824;10.102;2023-02-19T15:02:55;11.40;90.70
62259;DHT22;48241;48.824;10.102;2023-02-19T15:05:33;11.50;90.80
62259;DHT22;48241;48.824;10.102;2023-02-19T15:08:05;11.40;91.10
62259;DHT22;48241;48.824;10.102;2023-02-19T15:10:32;11.50;91.10
62259;DHT22;48241;48.824;10.102;2023-02-19T15:13:04;11.60;91.10
62259;DHT22;48241;48.824;10.102;2023-02-19T15:15:35;11.50;90.90
62259;DHT22;48241;48.824;10.102;2023-02-19T15:18:04;11.50;90.90
62259;DHT22;48241;48.824;10.102;2023-02-19T15:20:34;11.40;90.50
62259;DHT22;48241;48.824;10.102;2023-02-19T15:23:00;11.10;91.00
62259;DHT22;48241;48.824;10.102;2023-02-19T15:25:32;10.90;91.80
62259;DHT22;48241;48.824;10.102;2023-02-19T15:30:44;10.50;92.80
62259;DHT22;48241;48.824;10.102;2023-02-19T15:33:18;10.50;93.20
62259;DHT22;48241;48.824;10.102;2023-02-19T15:35:49;10.50;93.40
62259;DHT22;48241;48.824;10.102;2023-02-19T15:38:16;10.50;93.40
62259;DHT22;48241;48.824;10.102;2023-02-19T15:40:46;10.40;93.50
62259;DHT22;48241;48.824;10.102;2023-02-19T15:45:45;10.50;93.00
62259;DHT22;48241;48.824;10.102;2023-02-19T15:48:15;10.40;93.60
62259;DHT22;48241;48.824;10.102;2023-02-19T15:50:51;10.40;93.70
62259;DHT22;48241;48.824;10.102;2023-02-19T15:53:22;10.30;93.60
62259;DHT22;48241;48.824;10.102;2023-02-19T15:55:55;10.40;93.50
62259;DHT22;48241;48.824;10.102;2023-02-19T15:58:36;10.50;93.40
62259;DHT22;48241;48.824;10.102;2023-02-19T16:01:21;10.60;93.20
62259;DHT22;48241;48.824;10.102;2023-02-19T16:03:50;10.60;93.30
62259;DHT22;48241;48.824;10.102;2023-02-19T16:06:17;10.70;93.30
62259;DHT22;48241;48.824;10.102;2023-02-19T16:08:44;10.70;93.50
62259;DHT22;48241;48.824;10.102;2023-02-19T16:13:49;10.70;93.50
62259;DHT22;48241;48.824;10.102;2023-02-19T16:16:28;10.60;93.70
62259;DHT22;48241;48.824;10.102;2023-02-19T16:18:54;10.30;94.60
62259;DHT22;48241;48.824;10.102;2023-02-19T16:21:23;10.10;95.30
62259;DHT22;48241;48.824;10.102;2023-02-19T16:23:52;10.00;96.00
62259;DHT22;48241;48.824;10.102;2023-02-19T16:26:19;9.90;96.30
62259;DHT22;48241;48.824;10.102;2023-02-19T16:28:50;9.90;95.80
62259;DHT22;48241;48.824;10.102;2023-02-19T16:31:20;9.70;96.10
62259;DHT22;48241;48.824;10.102;2023-02-19T16:33:48;9.60;96.30
62259;DHT22;48241;48.824;10.102;2023-02-19T16:47:04;10.10;95.90
62259;DHT22;48241;48.824;10.102;2023-02-19T16:49:31;10.20;95.80
62259;DHT22;48241;48.824;10.102;2023-02-19T16:51:59;10.20;95.50
62259;DHT22;48241;48.824;10.102;2023-02-19T16:54:26;10.10;95.40
62259;DHT22;48241;48.824;10.102;2023-02-19T16:56:51;9.90;95.90
62259;DHT22;48241;48.824;10.102;2023-02-19T16:59:17;10.00;95.90
62259;DHT22;48241;48.824;10.102;2023-02-19T17:01:42;10.10;95.70
62259;DHT22;48241;48.824;10.102;2023-02-19T17:04:31;10.20;95.40
62259;DHT22;48241;48.824;10.102;2023-02-19T17:06:59;10.20;94.90
62259;DHT22;48241;48.824;10.102;2023-02-19T17:09:25;10.20;94.70
62259;DHT22;48241;48.824;10.102;2023-02-19T17:11:53;10.20;94.70
62259;DHT22;48241;48.824;10.102;2023-02-19T17:14:19;10.10;94.90
62259;DHT22;48241;48.824;10.102;2023-02-19T17:16:45;10.00;94.60
62259;DHT22;48241;48.824;10.102;2023-02-19T17:19:16;10.00;94.60
62259;DHT22;48241;48.824;10.102;2023-02-19T17:21:42;10.10;94.60
62259;DHT22;48241;48.824;10.102;2023-02-19T17:24:10;10.10;94.60
62259;DHT22;48241;48.824;10.102;2023-02-19T17:26:35;10.20;94.40
62259;DHT22;48241;48.824;10.102;2023-02-19T17:29:04;10.10;94.30
62259;DHT22;48241;48.824;10.102;2023-02-19T17:31:30;10.10;94.30
62259;DHT22;48241;48.824;10.102;2023-02-19T17:33:56;10.10;94.40
62259;DHT22;48241;48.824;10.102;2023-02-19T17:36:22;10.10;94.30
62259;DHT22;48241;48.824;10.102;2023-02-19T17:38:48;10.20;93.90
62259;DHT22;48241;48.824;10.102;2023-02-19T17:41:14;10.30;93.90
62259;DHT22;48241;48.824;10.102;2023-02-19T17:43:40;10.40;93.60
62259;DHT22;48241;48.824;10.102;2023-02-19T17:46:05;10.50;93.40
62259;DHT22;48241;48.824;10.102;2023-02-19T17:48:31;10.60;93.30
62259;DHT22;48241;48.824;10.102;2023-02-19T17:50:59;10.70;93.40
62259;DHT22;48241;48.824;10.102;2023-02-19T17:53:28;10.80;93.10
62259;DHT22;48241;48.824;10.102;2023-02-19T17:55:53;10.90;93.00
62259;DHT22;48241;48.824;10.102;2023-02-19T17:58:19;10.90;92.70
62259;DHT22;48241;48.824;10.102;2023-02-19T18:00:44;10.70;92.80
62259;DHT22;48241;48.824;10.102;2023-02-19T18:03:10;10.80;92.80
62259;DHT22;48241;48.824;10.102;2023-02-19T18:05:35;10.80;92.60
62259;DHT22;48241;48.824;10.102;2023-02-19T18:08:04;10.80;92.40
62259;DHT22;48241;48.824;10.102;2023-02-19T18:10:32;10.70;91.90